Time;durP1;ratioP1;P1;durP2;ratioP2;P2;SDS_P1;SDS_P2;PMS_P1;PMS_P2;Temp;Humidity;BMP_temperature;BMP_pressure;BME280_temperature;BME280_humidity;BME280_pressure;Samples;Min_cycle;Max_cycle;Signal;HPM_P1;HPM_P2
2020/12/14 00:02:17;;;;;;;8.97;4.90;;;7.50;49.40;;;;;;5052749;28;20385;-72
2020/12/14 00:04:43;;;;;;;8.35;4.20;;;7.50;49.00;;;;;;5053716;28;20405;-73
2020/12/14 00:07:09;;;;;;;9.40;4.75;;;7.60;48.50;;;;;;5053241;28;20408;-73
2020/12/14 00:09:34;;;;;;;7.40;4.63;;;7.60;49.00;;;;;;5052848;28;20394;-74
2020/12/14 00:12:01;;;;;;;7.10;4.50;;;7.60;47.50;;;;;;5053118;28;20408;-74
2020/12/14 00:14:27;;;;;;;10.13;4.32;;;7.60;47.60;;;;;;5053307;28;20389;-73
2020/12/14 00:16:53;;;;;;;9.57;5.05;;;7.60;47.50;;;;;;5052250;28;20389;-73
2020/12/14 00:19:18;;;;;;;6.60;4.20;;;7.70;46.80;;;;;;5052454;28;20508;-72
2020/12/14 00:21:44;;;;;;;8.53;4.10;;;7.70;47.20;;;;;;5052922;28;20389;-72
2020/12/14 00:24:10;;;;;;;10.55;5.38;;;7.70;47.40;;;;;;5052649;28;20442;-73
2020/12/14 00:26:35;;;;;;;8.40;5.72;;;7.80;47.30;;;;;;5051756;28;20394;-72
2020/12/14 00:29:01;;;;;;;9.90;5.10;;;7.80;46.40;;;;;;5052436;28;20389;-72
2020/12/14 00:31:27;;;;;;;7.55;4.32;;;7.90;46.60;;;;;;5052650;28;20963;-72
2020/12/14 00:33:52;;;;;;;10.47;4.40;;;7.80;45.90;;;;;;5035356;28;20429;-72
2020/12/14 00:36:18;;;;;;;9.80;4.00;;;7.80;45.60;;;;;;5052744;28;20394;-72
2020/12/14 00:38:45;;;;;;;8.60;4.30;;;7.90;45.70;;;;;;5052053;28;20437;-73
2020/12/14 00:41:16;;;;;;;7.30;4.22;;;7.90;46.20;;;;;;5033654;28;20397;-73
2020/12/14 00:43:42;;;;;;;8.32;4.28;;;7.90;45.70;;;;;;5052566;28;20394;-72
2020/12/14 00:46:12;;;;;;;6.60;3.90;;;7.90;45.20;;;;;;5052698;28;20397;-72
2020/12/14 00:48:38;;;;;;;5.93;3.78;;;7.90;44.60;;;;;;5052484;28;20401;-72
2020/12/14 00:51:04;;;;;;;5.75;3.50;;;7.90;45.20;;;;;;5052508;28;20733;-71
2020/12/14 00:53:29;;;;;;;10.17;4.30;;;7.90;45.30;;;;;;5052179;28;20399;-72
2020/12/14 00:55:55;;;;;;;9.93;4.53;;;7.90;45.50;;;;;;5051953;28;20439;-73
2020/12/14 00:58:20;;;;;;;8.37;3.70;;;7.90;46.20;;;;;;5051390;28;20389;-73
2020/12/14 01:00:46;;;;;;;6.90;3.70;;;7.90;45.00;;;;;;5052368;28;20381;-72
2020/12/14 01:03:11;;;;;;;9.20;3.80;;;7.80;46.50;;;;;;5052125;28;20385;-72
2020/12/14 01:05:37;;;;;;;7.87;3.80;;;7.90;44.90;;;;;;5049593;28;20409;-73
2020/12/14 01:08:02;;;;;;;8.10;3.90;;;7.80;46.20;;;;;;5051593;28;20761;-74
2020/12/14 01:10:28;;;;;;;6.73;3.63;;;7.80;45.30;;;;;;5032189;28;20486;-72
2020/12/14 01:12:54;;;;;;;9.60;4.40;;;7.80;46.00;;;;;;5018945;28;20385;-74
2020/12/14 01:15:19;;;;;;;8.60;4.10;;;7.70;46.50;;;;;;5050895;28;20519;-71
2020/12/14 01:17:45;;;;;;;5.60;3.70;;;7.80;45.30;;;;;;5051453;28;20382;-72
2020/12/14 01:20:13;;;;;;;8.25;3.80;;;7.70;45.80;;;;;;5051874;28;20381;-73
2020/12/14 01:22:40;;;;;;;6.30;3.67;;;7.70;46.60;;;;;;5051419;28;20416;-72
2020/12/14 01:25:05;;;;;;;7.35;3.50;;;7.80;46.20;;;;;;5051089;28;20759;-71
2020/12/14 01:27:31;;;;;;;6.00;3.70;;;7.80;45.90;;;;;;5051521;28;20389;-72
2020/12/14 01:29:56;;;;;;;6.60;2.80;;;7.80;44.70;;;;;;5051414;28;20412;-72
2020/12/14 01:32:22;;;;;;;7.57;3.80;;;7.90;44.90;;;;;;5051430;28;20394;-71
2020/12/14 01:34:47;;;;;;;8.17;3.70;;;7.90;44.50;;;;;;5050938;28;20405;-71
2020/12/14 01:37:13;;;;;;;9.97;4.57;;;8.00;43.90;;;;;;5050898;28;20401;-70
2020/12/14 01:39:39;;;;;;;8.93;3.50;;;8.00;44.50;;;;;;5050978;28;20400;-72
2020/12/14 01:42:04;;;;;;;9.67;3.27;;;8.00;44.30;;;;;;5051257;28;20447;-71
2020/12/14 01:44:30;;;;;;;11.67;4.00;;;8.10;44.20;;;;;;5050716;28;20752;-72
2020/12/14 01:46:59;;;;;;;9.20;4.20;;;8.00;44.30;;;;;;5050723;28;20412;-72
2020/12/14 01:49:24;;;;;;;5.97;3.40;;;8.00;44.00;;;;;;5050994;28;20440;-72
2020/12/14 01:51:50;;;;;;;10.13;3.58;;;8.00;43.80;;;;;;5051316;28;20753;-71
2020/12/14 01:54:28;;;;;;;5.77;3.10;;;8.00;45.30;;;;;;5051235;28;20428;-72
2020/12/14 01:56:55;;;;;;;10.52;4.00;;;8.00;44.70;;;;;;5050478;28;20445;-73
2020/12/14 01:59:22;;;;;;;8.25;3.40;;;7.90;46.00;;;;;;5051004;28;20485;-73
2020/12/14 02:01:47;;;;;;;7.65;2.97;;;7.90;45.40;;;;;;5051043;28;20390;-72
2020/12/14 02:04:13;;;;;;;7.90;3.63;;;7.90;44.40;;;;;;5050281;28;20451;-72
2020/12/14 02:06:38;;;;;;;9.73;3.00;;;7.80;44.80;;;;;;5049518;28;20428;-72
2020/12/14 02:09:04;;;;;;;7.40;3.30;;;7.70;46.00;;;;;;5050430;28;20425;-72
2020/12/14 02:11:29;;;;;;;7.97;3.10;;;7.60;46.00;;;;;;5050480;28;20402;-70
2020/12/14 02:13:55;;;;;;;8.47;3.70;;;7.50;47.10;;;;;;5057117;28;20403;-71
2020/12/14 02:16:21;;;;;;;5.15;3.03;;;7.60;48.00;;;;;;5050614;28;20390;-73
2020/12/14 02:18:46;;;;;;;8.20;3.42;;;7.70;46.20;;;;;;5049590;28;20385;-71
2020/12/14 02:21:16;;;;;;;7.50;3.00;;;7.70;46.20;;;;;;5050614;28;20404;-71
2020/12/14 02:23:45;;;;;;;8.83;3.20;;;7.60;46.30;;;;;;5050825;28;20443;-71
2020/12/14 02:26:11;;;;;;;5.65;3.35;;;7.60;46.90;;;;;;5050447;28;20924;-72
2020/12/14 02:28:37;;;;;;;8.15;3.20;;;7.70;46.10;;;;;;5032605;28;20405;-72
2020/12/14 02:31:03;;;;;;;7.30;2.70;;;7.70;46.00;;;;;;5051500;28;20996;-72
2020/12/14 02:33:29;;;;;;;6.43;3.20;;;7.70;45.40;;;;;;5051275;28;20389;-70
2020/12/14 02:35:55;;;;;;;8.77;2.80;;;7.50;45.90;;;;;;5051468;28;20453;-72
2020/12/14 02:38:21;;;;;;;4.13;2.50;;;7.50;46.40;;;;;;5050947;28;20746;-71
2020/12/14 02:40:48;;;;;;;5.45;2.90;;;7.50;46.90;;;;;;5047646;28;20458;-72
2020/12/14 02:43:14;;;;;;;9.48;3.47;;;7.50;46.90;;;;;;5050941;28;20397;-71
2020/12/14 02:45:40;;;;;;;4.97;2.80;;;7.50;47.10;;;;;;5051570;28;20401;-71
2020/12/14 02:48:05;;;;;;;9.82;3.20;;;7.40;47.40;;;;;;5051104;28;20794;-71
2020/12/14 02:50:31;;;;;;;8.05;3.90;;;7.40;47.40;;;;;;5050688;28;20414;-72
2020/12/14 02:52:57;;;;;;;7.45;3.00;;;7.40;47.90;;;;;;5050457;28;20389;-71
2020/12/14 02:55:23;;;;;;;7.95;3.45;;;7.30;48.10;;;;;;5049695;28;20881;-72
2020/12/14 02:57:48;;;;;;;8.75;3.00;;;7.30;48.70;;;;;;5050250;28;20485;-71
2020/12/14 03:00:14;;;;;;;6.30;3.20;;;7.20;48.90;;;;;;5049997;28;20443;-71
2020/12/14 03:02:39;;;;;;;10.43;2.90;;;7.30;49.20;;;;;;5032325;28;20966;-71
2020/12/14 03:05:05;;;;;;;4.20;2.60;;;7.30;47.70;;;;;;5050189;28;20381;-71
2020/12/14 03:07:30;;;;;;;5.35;2.80;;;7.40;47.70;;;;;;5049617;28;20393;-71
2020/12/14 03:09:56;;;;;;;11.77;2.90;;;7.50;47.90;;;;;;5049255;28;20476;-72
2020/12/14 03:12:22;;;;;;;7.45;3.55;;;7.50;47.60;;;;;;5052549;28;20750;-72
2020/12/14 03:14:47;;;;;;;10.65;3.80;;;7.60;47.20;;;;;;5069996;28;20379;-72
2020/12/14 03:17:13;;;;;;;6.32;2.95;;;7.60;47.30;;;;;;5051751;28;20686;-71
2020/12/14 03:19:38;;;;;;;6.50;3.05;;;7.70;46.60;;;;;;5056208;28;20945;-72
2020/12/14 03:22:04;;;;;;;6.50;2.72;;;7.70;46.50;;;;;;5049743;28;20439;-72
2020/12/14 03:24:29;;;;;;;5.15;2.50;;;7.70;46.60;;;;;;5049497;28;20874;-72
2020/12/14 03:26:55;;;;;;;8.13;3.15;;;7.70;47.30;;;;;;5049491;28;20393;-72
2020/12/14 03:29:20;;;;;;;6.70;3.38;;;7.60;47.40;;;;;;5049729;28;20397;-72
2020/12/14 03:31:46;;;;;;;8.05;3.50;;;7.60;47.80;;;;;;5049955;28;20523;-72
2020/12/14 03:34:12;;;;;;;5.17;2.40;;;7.50;48.40;;;;;;5049745;28;20526;-71
2020/12/14 03:36:37;;;;;;;10.50;3.47;;;7.50;48.50;;;;;;5050424;28;20386;-72
2020/12/14 03:39:03;;;;;;;7.37;2.70;;;7.50;49.10;;;;;;5031625;28;20400;-71
2020/12/14 03:41:29;;;;;;;6.97;3.15;;;7.50;49.50;;;;;;5034478;28;20399;-73
2020/12/14 03:43:55;;;;;;;6.90;2.80;;;7.50;49.20;;;;;;5053268;28;20397;-71
2020/12/14 03:46:22;;;;;;;4.60;3.10;;;7.50;49.60;;;;;;5053226;28;20404;-72
2020/12/14 03:48:53;;;;;;;6.05;2.85;;;7.50;49.30;;;;;;5053165;28;20947;-72
2020/12/14 03:51:18;;;;;;;9.23;2.92;;;7.50;49.30;;;;;;5053453;28;20443;-73
2020/12/14 03:53:44;;;;;;;11.15;2.90;;;7.50;49.30;;;;;;5053395;28;20431;-74
2020/12/14 03:56:09;;;;;;;7.53;3.60;;;7.60;49.60;;;;;;5053369;28;20801;-73
2020/12/14 03:58:35;;;;;;;11.13;3.47;;;7.60;49.80;;;;;;5053245;28;20503;-71
2020/12/14 04:01:00;;;;;;;5.33;2.70;;;7.60;49.60;;;;;;5052933;28;20401;-72
2020/12/14 04:03:26;;;;;;;6.23;2.70;;;7.70;47.90;;;;;;5052980;28;20937;-71
2020/12/14 04:05:52;;;;;;;5.75;3.40;;;7.80;47.40;;;;;;5052722;28;20854;-72
2020/12/14 04:08:18;;;;;;;6.22;3.30;;;7.80;47.70;;;;;;5034045;28;20402;-72
2020/12/14 04:10:43;;;;;;;11.77;3.38;;;7.90;47.60;;;;;;5053312;28;20405;-72
2020/12/14 04:13:09;;;;;;;6.28;2.70;;;7.90;46.50;;;;;;5035587;28;20404;-72
2020/12/14 04:15:35;;;;;;;10.50;3.57;;;7.90;46.70;;;;;;5052669;28;20451;-73
2020/12/14 04:18:00;;;;;;;3.67;3.00;;;7.90;47.70;;;;;;5052652;28;20373;-73
2020/12/14 04:20:26;;;;;;;6.60;3.30;;;7.90;47.20;;;;;;5052628;28;20817;-72
2020/12/14 04:22:52;;;;;;;8.00;3.10;;;7.90;47.00;;;;;;5052415;28;20399;-71
2020/12/14 04:25:18;;;;;;;8.98;3.10;;;7.90;47.50;;;;;;5052933;28;20472;-73
2020/12/14 04:27:44;;;;;;;6.37;2.90;;;7.80;48.80;;;;;;5052741;28;20452;-74
2020/12/14 04:30:11;;;;;;;7.10;3.00;;;7.90;49.10;;;;;;5052611;28;20406;-74
2020/12/14 04:32:37;;;;;;;9.33;3.10;;;8.00;47.30;;;;;;5053032;28;20453;-73
2020/12/14 04:35:03;;;;;;;4.60;2.70;;;8.00;47.30;;;;;;5052452;28;20746;-73
2020/12/14 04:37:28;;;;;;;7.03;2.67;;;8.00;47.40;;;;;;5052107;28;20408;-74
2020/12/14 04:39:54;;;;;;;7.07;3.07;;;8.00;47.00;;;;;;5041824;28;20390;-72
2020/12/14 04:42:20;;;;;;;9.47;3.40;;;8.10;48.10;;;;;;5040379;28;20401;-72
2020/12/14 04:44:45;;;;;;;6.23;2.50;;;8.00;47.10;;;;;;5052478;28;20404;-72
2020/12/14 04:47:14;;;;;;;4.22;3.10;;;8.00;48.20;;;;;;5052083;28;20385;-72
2020/12/14 04:49:41;;;;;;;9.05;3.08;;;8.10;48.30;;;;;;5051411;28;20408;-73
2020/12/14 04:52:07;;;;;;;7.40;3.17;;;8.10;47.70;;;;;;5051413;28;20758;-72
2020/12/14 04:54:33;;;;;;;6.95;3.65;;;8.10;48.70;;;;;;5051898;28;20455;-72
2020/12/14 04:57:08;;;;;;;9.02;3.00;;;8.10;48.00;;;;;;5051841;28;20862;-73
2020/12/14 04:59:34;;;;;;;6.20;2.50;;;8.20;47.80;;;;;;5034430;28;20853;-73
2020/12/14 05:02:07;;;;;;;6.45;2.90;;;8.20;48.70;;;;;;5052309;28;20412;-73
2020/12/14 05:04:34;;;;;;;5.73;2.80;;;8.10;49.00;;;;;;5051109;28;20413;-74
2020/12/14 05:06:59;;;;;;;10.68;2.83;;;8.20;48.50;;;;;;5050623;28;20416;-73
2020/12/14 05:09:25;;;;;;;6.07;3.10;;;8.20;49.50;;;;;;5051388;28;20381;-72
2020/12/14 05:11:51;;;;;;;6.63;2.88;;;8.20;48.20;;;;;;5051645;28;20401;-74
2020/12/14 05:14:21;;;;;;;5.30;2.88;;;8.20;49.20;;;;;;5050728;28;20949;-72
2020/12/14 05:16:48;;;;;;;8.00;3.00;;;8.20;49.60;;;;;;5051851;28;20791;-73
2020/12/14 05:19:18;;;;;;;5.75;2.90;;;8.20;49.50;;;;;;5051234;28;20381;-73
2020/12/14 05:21:55;;;;;;;5.18;2.50;;;8.10;50.30;;;;;;5051060;28;20515;-73
2020/12/14 05:24:28;;;;;;;6.53;2.80;;;8.10;50.80;;;;;;5051154;28;20484;-73
2020/12/14 05:26:55;;;;;;;7.47;3.05;;;8.10;51.00;;;;;;5050929;28;20457;-72
2020/12/14 05:29:28;;;;;;;8.20;2.90;;;8.10;51.80;;;;;;5051317;28;20472;-72
2020/12/14 05:32:08;;;;;;;7.65;2.80;;;8.00;51.80;;;;;;5051421;28;20397;-71
2020/12/14 05:34:38;;;;;;;8.07;3.20;;;8.00;53.00;;;;;;5050904;28;20581;-72
2020/12/14 05:37:07;;;;;;;11.95;3.40;;;7.90;53.30;;;;;;5032874;28;20536;-72
2020/12/14 05:39:35;;;;;;;4.17;2.30;;;7.90;53.40;;;;;;5050445;28;20465;-72
2020/12/14 05:42:09;;;;;;;5.10;2.75;;;7.90;54.20;;;;;;5048809;28;20413;-71
2020/12/14 05:44:35;;;;;;;4.47;2.10;;;7.90;54.50;;;;;;5050783;28;20413;-72
2020/12/14 05:47:01;;;;;;;3.30;2.20;;;8.00;53.50;;;;;;5052836;28;20444;-72
2020/12/14 05:49:26;;;;;;;3.00;2.30;;;7.90;54.20;;;;;;5034621;28;20405;-72
2020/12/14 05:52:01;;;;;;;6.57;2.33;;;7.90;54.60;;;;;;5053658;28;20401;-72
2020/12/14 05:54:36;;;;;;;4.90;2.83;;;7.80;55.60;;;;;;5053237;28;20736;-72
2020/12/14 05:57:03;;;;;;;7.25;2.50;;;7.80;55.90;;;;;;5053189;28;20404;-73
2020/12/14 05:59:34;;;;;;;4.68;2.50;;;7.70;57.40;;;;;;5053677;28;20388;-72
2020/12/14 06:02:03;;;;;;;5.03;2.45;;;7.80;57.00;;;;;;5051979;28;20414;-73
2020/12/14 06:04:33;;;;;;;5.20;2.90;;;7.80;56.60;;;;;;5052176;28;20400;-73
2020/12/14 06:07:06;;;;;;;6.13;2.50;;;7.80;57.20;;;;;;5051842;28;20432;-72
2020/12/14 06:09:39;;;;;;;3.42;2.75;;;7.70;57.70;;;;;;5050247;28;20392;-73
2020/12/14 06:12:05;;;;;;;4.85;2.40;;;7.70;58.80;;;;;;5050754;28;20885;-73
2020/12/14 06:14:38;;;;;;;5.00;2.60;;;7.70;58.70;;;;;;5050313;28;20425;-73
2020/12/14 06:17:11;;;;;;;4.50;2.60;;;7.60;59.40;;;;;;5049945;28;20397;-73
2020/12/14 06:19:38;;;;;;;4.60;2.40;;;7.60;59.40;;;;;;5050561;28;20388;-73
2020/12/14 06:22:08;;;;;;;4.90;2.60;;;7.60;59.90;;;;;;5050512;28;20403;-73
2020/12/14 06:24:34;;;;;;;5.23;2.40;;;7.70;60.60;;;;;;5052482;28;20397;-73
2020/12/14 06:27:01;;;;;;;4.10;2.60;;;7.70;60.40;;;;;;5051581;28;20393;-73
2020/12/14 06:29:32;;;;;;;5.30;2.70;;;7.80;59.50;;;;;;5052678;28;20463;-74
2020/12/14 06:31:59;;;;;;;6.72;2.80;;;8.00;58.80;;;;;;5052126;28;20401;-72
2020/12/14 06:34:31;;;;;;;5.93;2.65;;;8.10;57.90;;;;;;5052636;28;20393;-72
2020/12/14 06:36:56;;;;;;;4.07;2.30;;;8.30;57.00;;;;;;5052652;28;20389;-73
2020/12/14 06:39:44;;;;;;;6.85;2.75;;;8.40;55.70;;;;;;5047094;28;20892;-72
2020/12/14 06:42:09;;;;;;;5.28;2.50;;;8.40;55.90;;;;;;5039787;28;20418;-74
2020/12/14 06:44:44;;;;;;;3.10;2.30;;;8.40;56.30;;;;;;5052954;28;20461;-73
2020/12/14 06:47:14;;;;;;;7.68;2.80;;;8.40;55.70;;;;;;5050775;28;20478;-73
2020/12/14 06:49:40;;;;;;;5.20;2.60;;;8.50;56.00;;;;;;5051731;28;20396;-73
2020/12/14 06:52:05;;;;;;;3.78;2.60;;;8.50;56.00;;;;;;5052911;28;20401;-74
2020/12/14 06:54:44;;;;;;;4.50;2.60;;;8.60;55.90;;;;;;5050831;28;20389;-74
2020/12/14 06:57:12;;;;;;;5.55;2.88;;;8.50;57.70;;;;;;5049871;28;20377;-73
2020/12/14 06:59:38;;;;;;;3.00;2.10;;;8.60;58.20;;;;;;5049891;28;20785;-73
2020/12/14 07:02:09;;;;;;;3.95;2.70;;;8.50;58.10;;;;;;5047987;28;20401;-74
2020/12/14 07:04:37;;;;;;;5.93;2.40;;;8.50;58.90;;;;;;5050003;28;20396;-73
2020/12/14 07:07:06;;;;;;;3.42;2.60;;;8.60;58.10;;;;;;5050845;28;20397;-73
2020/12/14 07:09:39;;;;;;;6.40;2.70;;;8.60;57.00;;;;;;5051434;28;20870;-73
2020/12/14 07:12:10;;;;;;;4.13;2.70;;;8.60;56.40;;;;;;5043813;28;20413;-73
2020/12/14 07:14:45;;;;;;;4.55;2.75;;;8.70;56.00;;;;;;5033349;28;20409;-72
2020/12/14 07:17:22;;;;;;;6.32;2.53;;;8.70;56.60;;;;;;5032876;28;20451;-73
2020/12/14 07:19:49;;;;;;;4.78;2.80;;;8.70;58.10;;;;;;5053661;28;20420;-73
2020/12/14 07:22:18;;;;;;;5.22;3.30;;;8.70;57.90;;;;;;5043294;28;20401;-72
2020/12/14 07:25:09;;;;;;;9.10;5.80;;;8.70;58.60;;;;;;5048633;28;20463;-72
2020/12/14 07:27:35;;;;;;;27.67;12.93;;;8.70;59.70;;;;;;5047655;28;20496;-75
2020/12/14 07:30:03;;;;;;;17.83;8.57;;;8.70;60.90;;;;;;5051239;28;20477;-75
2020/12/14 07:32:29;;;;;;;6.95;4.65;;;8.60;63.40;;;;;;5050000;28;20812;-73
2020/12/14 07:34:55;;;;;;;13.07;6.60;;;8.70;62.50;;;;;;5053741;28;20370;-74
2020/12/14 07:37:24;;;;;;;28.77;16.07;;;8.60;62.80;;;;;;5049522;28;20476;-71
2020/12/14 07:39:51;;;;;;;10.63;5.93;;;8.60;63.70;;;;;;5047588;28;20470;-74
2020/12/14 07:42:31;;;;;;;41.57;21.20;;;8.60;65.50;;;;;;5053655;28;20428;-72
2020/12/14 07:45:18;;;;;;;24.77;14.73;;;8.60;67.80;;;;;;5038162;28;20401;-72
2020/12/14 07:47:45;;;;;;;9.80;4.88;;;8.60;68.40;;;;;;5053865;28;20830;-72
2020/12/14 07:50:19;;;;;;;8.27;5.10;;;8.60;68.90;;;;;;5053758;28;20385;-75
2020/12/14 07:52:55;;;;;;;21.75;9.75;;;8.40;71.80;;;;;;5055445;28;20500;-73
2020/12/14 07:55:26;;;;;;;5.97;3.50;;;8.40;74.90;;;;;;5051875;28;20963;-74
2020/12/14 07:57:51;;;;;;;5.80;4.03;;;8.30;75.40;;;;;;5054616;28;20390;-73
2020/12/14 08:00:25;;;;;;;7.47;3.60;;;8.30;77.10;;;;;;5053679;28;20395;-74
2020/12/14 08:02:59;;;;;;;7.30;3.83;;;8.30;77.40;;;;;;5053200;28;20381;-74
2020/12/14 08:05:25;;;;;;;4.95;3.78;;;8.30;78.50;;;;;;5049217;28;20406;-72
2020/12/14 08:07:53;;;;;;;6.55;3.40;;;8.30;80.70;;;;;;5050480;28;20896;-72
2020/12/14 08:10:29;;;;;;;7.13;2.90;;;8.30;79.10;;;;;;5049817;28;20390;-72
2020/12/14 08:12:57;;;;;;;7.25;3.80;;;8.30;80.00;;;;;;5050667;28;20403;-72
2020/12/14 08:15:24;;;;;;;8.95;5.30;;;8.30;80.80;;;;;;5047790;28;20393;-72
2020/12/14 08:17:50;;;;;;;6.05;4.32;;;8.30;80.90;;;;;;5038476;28;20482;-71
2020/12/14 08:20:27;;;;;;;4.10;2.90;;;8.30;80.90;;;;;;5040545;28;20847;-73
2020/12/14 08:22:58;;;;;;;6.20;2.85;;;8.30;80.60;;;;;;5041568;28;20830;-72
2020/12/14 08:25:28;;;;;;;6.72;2.88;;;8.40;78.10;;;;;;5044451;28;20496;-72
2020/12/14 08:28:04;;;;;;;6.90;2.85;;;8.40;77.60;;;;;;5044554;28;20401;-74
2020/12/14 08:30:31;;;;;;;4.32;2.83;;;8.40;77.70;;;;;;5043471;28;20440;-73
2020/12/14 08:33:10;;;;;;;4.90;2.60;;;8.40;77.90;;;;;;5051186;28;20917;-74
2020/12/14 08:35:37;;;;;;;5.07;2.95;;;8.40;75.40;;;;;;5049240;28;20877;-76
2020/12/14 08:38:06;;;;;;;5.47;2.85;;;8.50;74.40;;;;;;5034422;28;20901;-77
2020/12/14 08:40:32;;;;;;;6.50;2.88;;;8.60;72.50;;;;;;5042667;28;20405;-76
2020/12/14 08:43:12;;;;;;;3.53;2.70;;;8.60;73.10;;;;;;5050060;28;20444;-76
2020/12/14 08:45:55;;;;;;;4.95;2.90;;;8.60;72.60;;;;;;5050093;28;20488;-74
2020/12/14 08:48:24;;;;;;;5.47;3.10;;;8.70;71.20;;;;;;5050348;28;20526;-75
2020/12/14 08:50:50;;;;;;;7.10;3.28;;;8.60;71.20;;;;;;5032673;28;20425;-74
2020/12/14 08:53:24;;;;;;;11.15;2.83;;;8.70;70.20;;;;;;5050549;28;20390;-76
2020/12/14 08:55:49;;;;;;;4.22;2.70;;;8.70;71.00;;;;;;5050726;28;20403;-74
2020/12/14 08:58:15;;;;;;;5.27;3.30;;;8.70;71.00;;;;;;5043035;28;20805;-73
2020/12/14 09:00:40;;;;;;;7.53;4.20;;;8.70;70.90;;;;;;5047817;28;20405;-75
2020/12/14 09:03:06;;;;;;;7.20;2.90;;;8.80;70.40;;;;;;5051244;28;20413;-75
2020/12/14 09:05:33;;;;;;;9.73;3.35;;;8.80;70.30;;;;;;5050437;28;20883;-75
2020/12/14 09:08:16;;;;;;;4.88;2.72;;;8.80;69.60;;;;;;5050503;28;20397;-74
2020/12/14 09:10:55;;;;;;;4.32;2.85;;;8.90;67.80;;;;;;5050343;28;20409;-74
2020/12/14 09:13:20;;;;;;;4.03;2.63;;;8.90;69.30;;;;;;5049587;28;20416;-73
2020/12/14 09:15:52;;;;;;;7.90;3.10;;;8.90;68.30;;;;;;5050765;28;20427;-74
2020/12/14 09:18:18;;;;;;;7.18;3.40;;;9.00;67.40;;;;;;5040122;28;20403;-73
2020/12/14 09:20:43;;;;;;;6.30;3.30;;;9.00;68.30;;;;;;5043983;28;20798;-74
2020/12/14 09:23:19;;;;;;;6.00;3.10;;;9.00;66.70;;;;;;5055371;28;20405;-73
2020/12/14 09:25:45;;;;;;;13.88;3.33;;;9.10;66.80;;;;;;5056375;28;20476;-75
2020/12/14 09:28:11;;;;;;;4.97;3.50;;;9.20;65.00;;;;;;5053907;28;20519;-73
2020/12/14 09:30:36;;;;;;;9.97;3.50;;;9.30;66.30;;;;;;5053560;28;20508;-74
2020/12/14 09:33:02;;;;;;;4.67;3.10;;;9.30;66.20;;;;;;5050017;28;20886;-73
2020/12/14 09:35:27;;;;;;;3.77;3.10;;;9.40;64.00;;;;;;5051638;28;20859;-74
2020/12/14 09:37:53;;;;;;;7.20;3.63;;;9.30;65.50;;;;;;5048663;28;20945;-74
2020/12/14 09:40:18;;;;;;;6.40;3.50;;;9.30;67.30;;;;;;5050217;28;20389;-74
2020/12/14 09:42:44;;;;;;;6.32;3.13;;;9.30;69.40;;;;;;5047503;28;20421;-74
2020/12/14 09:45:10;;;;;;;5.80;3.70;;;9.20;71.10;;;;;;5049107;28;20484;-74
2020/12/14 09:47:35;;;;;;;4.80;2.90;;;9.10;73.90;;;;;;5048817;28;20409;-75
2020/12/14 09:50:02;;;;;;;9.20;3.50;;;8.90;76.00;;;;;;5049287;28;20397;-73
2020/12/14 09:52:27;;;;;;;7.50;3.50;;;8.90;75.80;;;;;;5050088;28;20809;-73
2020/12/14 09:54:53;;;;;;;4.47;3.00;;;9.00;75.60;;;;;;5049103;28;20397;-74
2020/12/14 09:57:18;;;;;;;4.90;3.03;;;8.90;76.70;;;;;;5049823;28;20386;-75
2020/12/14 09:59:44;;;;;;;9.95;3.60;;;8.80;76.60;;;;;;5049101;28;20742;-73
2020/12/14 10:02:09;;;;;;;6.65;3.30;;;8.90;75.90;;;;;;5030077;28;20436;-75
2020/12/14 10:04:35;;;;;;;7.32;3.40;;;8.90;77.20;;;;;;5046799;28;20408;-74
2020/12/14 10:07:00;;;;;;;4.93;3.50;;;8.80;76.40;;;;;;5041173;28;20405;-75
2020/12/14 10:09:28;;;;;;;6.50;3.50;;;8.90;76.80;;;;;;5045901;28;20407;-75
2020/12/14 10:11:55;;;;;;;4.93;3.30;;;9.10;74.00;;;;;;5048989;28;20596;-74
2020/12/14 10:14:20;;;;;;;7.47;3.00;;;9.20;71.80;;;;;;5048674;28;20484;-75
2020/12/14 10:16:49;;;;;;;9.60;3.50;;;9.40;70.60;;;;;;5047776;28;20947;-74
2020/12/14 10:19:15;;;;;;;4.80;2.75;;;9.30;71.70;;;;;;5050063;28;20746;-75
2020/12/14 10:21:41;;;;;;;5.63;3.20;;;9.30;72.40;;;;;;5048207;28;20570;-73
2020/12/14 10:24:06;;;;;;;5.15;3.17;;;9.20;73.90;;;;;;5049061;28;20723;-73
2020/12/14 10:26:33;;;;;;;13.60;3.80;;;9.20;73.30;;;;;;5049774;28;20392;-74
2020/12/14 10:28:58;;;;;;;3.83;2.97;;;9.20;74.90;;;;;;5048988;28;20397;-73
2020/12/14 10:31:24;;;;;;;5.97;3.27;;;9.20;75.40;;;;;;5049938;28;20739;-74
2020/12/14 10:33:50;;;;;;;4.73;3.30;;;9.30;73.80;;;;;;5050055;28;21061;-73
2020/12/14 10:36:18;;;;;;;5.13;3.60;;;9.40;73.50;;;;;;5048719;28;20475;-75
2020/12/14 10:38:46;;;;;;;4.93;3.67;;;9.40;73.20;;;;;;5049820;28;20421;-73
2020/12/14 10:41:11;;;;;;;6.72;3.90;;;9.40;75.80;;;;;;5050095;28;20492;-73
2020/12/14 10:43:37;;;;;;;7.80;4.47;;;9.30;76.50;;;;;;5049345;28;20488;-73
2020/12/14 10:46:03;;;;;;;7.60;4.40;;;9.30;78.10;;;;;;5049125;28;20385;-73
2020/12/14 10:48:28;;;;;;;9.80;4.17;;;9.40;78.30;;;;;;5048773;28;20824;-75
2020/12/14 10:50:55;;;;;;;6.37;4.00;;;9.40;77.60;;;;;;5048911;28;20413;-73
2020/12/14 10:53:20;;;;;;;8.77;4.20;;;9.50;76.90;;;;;;5048569;28;20393;-73
2020/12/14 10:55:46;;;;;;;5.90;3.83;;;9.40;78.30;;;;;;5049185;28;20395;-74
2020/12/14 10:58:12;;;;;;;8.17;4.17;;;9.40;80.30;;;;;;5049086;28;20436;-73
2020/12/14 11:00:37;;;;;;;6.63;3.80;;;9.40;79.60;;;;;;5049380;28;20793;-73
2020/12/14 11:03:03;;;;;;;9.00;4.50;;;9.30;81.40;;;;;;5050717;28;20433;-72
2020/12/14 11:05:29;;;;;;;5.70;4.30;;;9.40;81.30;;;;;;5050972;28;20401;-73
2020/12/14 11:07:55;;;;;;;6.32;3.78;;;9.30;82.10;;;;;;5050122;28;20500;-73
2020/12/14 11:10:20;;;;;;;5.97;3.60;;;9.40;82.30;;;;;;5050793;28;20520;-75
2020/12/14 11:12:46;;;;;;;10.20;3.90;;;9.50;80.80;;;;;;5050052;28;20475;-72
2020/12/14 11:15:12;;;;;;;6.80;4.20;;;9.60;81.10;;;;;;5048989;28;20430;-74
2020/12/14 11:17:37;;;;;;;10.97;4.13;;;9.80;78.70;;;;;;5049838;28;20896;-74
2020/12/14 11:20:12;;;;;;;7.13;3.75;;;9.80;75.60;;;;;;5049822;28;20400;-74
2020/12/14 11:22:38;;;;;;;9.10;4.30;;;9.70;77.00;;;;;;5049492;28;20386;-73
2020/12/14 11:25:05;;;;;;;9.57;3.05;;;9.80;76.60;;;;;;5049069;28;20385;-73
2020/12/14 11:27:31;;;;;;;4.87;3.00;;;9.90;77.10;;;;;;5048467;28;20481;-73
2020/12/14 11:29:56;;;;;;;5.13;3.30;;;10.00;74.30;;;;;;5049342;28;20918;-74
2020/12/14 11:32:22;;;;;;;6.63;3.57;;;10.00;72.70;;;;;;5048564;28;20909;-73
2020/12/14 11:34:48;;;;;;;7.33;3.50;;;10.00;71.80;;;;;;5047911;28;21706;-73
2020/12/14 11:37:13;;;;;;;8.20;4.20;;;10.10;71.80;;;;;;5048868;28;20469;-72
2020/12/14 11:39:39;;;;;;;6.57;3.27;;;10.10;71.40;;;;;;5048361;28;20397;-75
2020/12/14 11:42:04;;;;;;;9.67;3.93;;;10.20;70.30;;;;;;5048296;28;20386;-74
2020/12/14 11:44:30;;;;;;;6.97;3.50;;;10.30;67.60;;;;;;5048196;28;20409;-74
2020/12/14 11:46:55;;;;;;;6.60;3.27;;;10.40;68.30;;;;;;5048608;28;20381;-76
2020/12/14 11:49:21;;;;;;;7.43;3.53;;;10.40;66.60;;;;;;5048236;28;20798;-76
2020/12/14 11:51:47;;;;;;;6.50;3.40;;;10.40;66.40;;;;;;5049303;28;20479;-75
2020/12/14 11:54:13;;;;;;;4.10;3.60;;;10.40;67.00;;;;;;5048887;28;20421;-72
2020/12/14 11:56:39;;;;;;;5.55;3.15;;;10.40;66.50;;;;;;5048956;28;20392;-72
2020/12/14 11:59:05;;;;;;;6.40;3.40;;;10.50;65.60;;;;;;5050990;28;20386;-71
2020/12/14 12:01:30;;;;;;;6.93;3.40;;;10.60;64.10;;;;;;5052692;28;20455;-70
2020/12/14 12:03:56;;;;;;;4.67;3.10;;;10.60;62.80;;;;;;5033799;28;20834;-71
2020/12/14 12:06:28;;;;;;;5.80;3.60;;;10.70;61.50;;;;;;5052551;28;20396;-72
2020/12/14 12:08:56;;;;;;;7.43;3.83;;;10.70;62.20;;;;;;5051774;28;20477;-71
2020/12/14 12:11:21;;;;;;;5.15;3.50;;;10.70;63.10;;;;;;5052619;28;20405;-71
2020/12/14 12:13:47;;;;;;;7.70;3.40;;;10.80;61.90;;;;;;5052029;28;20391;-72
2020/12/14 12:16:13;;;;;;;5.22;3.30;;;11.00;59.10;;;;;;5052216;28;20381;-71
2020/12/14 12:18:39;;;;;;;9.85;3.90;;;11.10;59.40;;;;;;5051598;28;20389;-72
2020/12/14 12:21:06;;;;;;;6.50;3.20;;;11.10;59.10;;;;;;5032383;28;20387;-70
2020/12/14 12:23:31;;;;;;;10.07;3.07;;;11.00;58.40;;;;;;5048708;28;20397;-71
2020/12/14 12:25:57;;;;;;;7.30;3.80;;;10.90;59.30;;;;;;5052013;28;20712;-72
2020/12/14 12:28:22;;;;;;;5.00;3.20;;;10.60;61.20;;;;;;5051710;28;20468;-71
2020/12/14 12:30:48;;;;;;;8.23;3.20;;;10.50;62.30;;;;;;5051789;28;20743;-73
2020/12/14 12:33:13;;;;;;;5.57;3.37;;;10.50;64.80;;;;;;5051491;28;20735;-72
2020/12/14 12:35:39;;;;;;;4.33;2.97;;;10.60;63.40;;;;;;5052165;28;20886;-72
2020/12/14 12:38:05;;;;;;;9.83;4.00;;;10.50;62.90;;;;;;5051783;28;20414;-73
2020/12/14 12:40:30;;;;;;;7.53;3.60;;;10.40;62.60;;;;;;5051577;28;20394;-73
2020/12/14 12:42:56;;;;;;;10.50;4.50;;;10.40;62.90;;;;;;5047912;28;20439;-73
2020/12/14 12:45:21;;;;;;;7.13;4.10;;;10.30;63.20;;;;;;5041442;28;20479;-73
2020/12/14 12:47:47;;;;;;;6.47;3.60;;;10.20;63.40;;;;;;5030249;28;20394;-72
2020/12/14 12:50:13;;;;;;;5.90;3.65;;;10.20;64.10;;;;;;5042690;28;20401;-74
2020/12/14 12:52:38;;;;;;;6.10;3.85;;;10.20;64.00;;;;;;5035092;28;20432;-72
2020/12/14 12:55:04;;;;;;;6.45;3.70;;;10.30;62.80;;;;;;5055191;28;20417;-74
2020/12/14 12:57:29;;;;;;;5.13;3.93;;;10.40;60.70;;;;;;5055486;28;20393;-75